Time;durP1;ratioP1;P1;durP2;ratioP2;P2;SDS_P1;SDS_P2;PMS_P1;PMS_P2;Temp;Humidity;BMP_temperature;BMP_pressure;BME280_temperature;BME280_humidity;BME280_pressure;Samples;Min_cycle;Max_cycle;Signal;HPM_P1;HPM_P2
2021/06/14 00:02:12;;;;;;;3.38;1.98;;;;;;;19.66;64.69;101478.31;4923916;29;20039;-47
2021/06/14 00:04:39;;;;;;;3.58;2.17;;;;;;;19.65;64.63;101475.88;4936374;29;20438;-45
2021/06/14 00:07:06;;;;;;;4.97;1.90;;;;;;;19.62;64.83;101466.25;4936611;29;20047;-45
2021/06/14 00:09:33;;;;;;;3.67;2.33;;;;;;;19.61;64.72;101461.84;4944556;29;20047;-49
2021/06/14 00:12:01;;;;;;;4.05;1.80;;;;;;;19.56;64.96;101462.19;4946054;29;20050;-47
2021/06/14 00:14:28;;;;;;;1.88;1.60;;;;;;;19.49;65.41;101462.13;4942168;29;20047;-45
2021/06/14 00:16:54;;;;;;;3.25;2.10;;;;;;;19.42;65.66;101464.88;4928973;29;20063;-44
2021/06/14 00:19:22;;;;;;;3.95;2.38;;;;;;;19.42;65.75;101462.06;4943744;29;20050;-46
2021/06/14 00:21:49;;;;;;;4.30;2.40;;;;;;;19.42;65.63;101467.69;4940586;29;20051;-45
2021/06/14 00:24:16;;;;;;;4.15;2.35;;;;;;;19.34;66.22;101461.19;4934540;29;20055;-48
2021/06/14 00:26:43;;;;;;;3.10;2.00;;;;;;;19.26;66.24;101453.88;4938811;29;20057;-46
2021/06/14 00:29:10;;;;;;;4.43;2.25;;;;;;;19.27;66.42;101460.31;4947936;29;20099;-49
2021/06/14 00:31:36;;;;;;;7.63;2.40;;;;;;;19.24;66.56;101469.50;4946465;29;20156;-49
2021/06/14 00:34:03;;;;;;;3.53;2.25;;;;;;;19.19;66.78;101469.84;4950282;29;20040;-46
2021/06/14 00:36:31;;;;;;;4.40;2.30;;;;;;;19.15;67.15;101478.22;4938757;29;20051;-44
2021/06/14 00:38:57;;;;;;;4.07;2.30;;;;;;;19.08;67.09;101466.13;4952714;29;20078;-44
2021/06/14 00:41:24;;;;;;;2.33;1.90;;;;;;;19.05;67.25;101469.69;4940933;29;20070;-46
2021/06/14 00:43:51;;;;;;;3.83;1.85;;;;;;;19.02;67.54;101464.84;4949194;29;20370;-46
2021/06/14 00:46:18;;;;;;;3.70;2.45;;;;;;;18.95;67.41;101450.75;4918578;29;20075;-48
2021/06/14 00:48:45;;;;;;;2.53;1.92;;;;;;;18.91;67.81;101452.69;4946972;29;20125;-46
2021/06/14 00:51:11;;;;;;;4.03;1.92;;;;;;;18.85;67.75;101450.25;4936490;29;20139;-44
2021/06/14 00:53:41;;;;;;;4.68;1.98;;;;;;;18.77;68.33;101454.16;4948272;28;20074;-46
2021/06/14 00:56:10;;;;;;;4.32;1.90;;;;;;;18.74;68.48;101443.69;4930460;29;20054;-46
2021/06/14 00:58:40;;;;;;;3.55;2.10;;;;;;;18.73;68.41;101447.72;4935626;29;20132;-46
2021/06/14 01:01:08;;;;;;;4.90;2.38;;;;;;;18.68;68.51;101447.25;4945847;29;20134;-48
2021/06/14 01:03:36;;;;;;;4.50;2.40;;;;;;;18.64;68.48;101444.41;4948951;29;20047;-45
2021/06/14 01:06:08;;;;;;;2.42;1.85;;;;;;;18.59;68.79;101444.75;4943322;29;20064;-45
2021/06/14 01:08:38;;;;;;;4.03;2.72;;;;;;;18.56;68.66;101451.09;4937271;29;20106;-46
2021/06/14 01:11:15;;;;;;;2.67;1.75;;;;;;;18.45;69.13;101460.56;4945237;29;20049;-47
2021/06/14 01:13:52;;;;;;;4.47;1.80;;;;;;;18.34;69.63;101452.03;4918702;29;20079;-47
2021/06/14 01:16:31;;;;;;;2.00;1.70;;;;;;;18.29;69.78;101451.53;4941462;29;20474;-49
2021/06/14 01:19:06;;;;;;;5.35;2.45;;;;;;;18.33;69.71;101458.81;4938119;29;20450;-45
2021/06/14 01:21:47;;;;;;;2.53;1.98;;;;;;;18.31;69.91;101457.56;4940183;29;20113;-45
2021/06/14 01:24:47;;;;;;;2.10;1.80;;;;;;;18.31;69.83;101457.56;4932059;29;20142;-48
2021/06/14 01:27:38;;;;;;;2.85;1.52;;;;;;;18.26;69.76;101458.72;4946527;29;20071;-44
2021/06/14 01:30:12;;;;;;;2.20;1.48;;;;;;;18.18;69.93;101451.41;4948003;29;20155;-47
2021/06/14 01:32:40;;;;;;;1.88;1.77;;;;;;;18.19;69.82;101455.78;4951903;29;20066;-46
2021/06/14 01:35:10;;;;;;;4.32;1.30;;;;;;;18.19;69.66;101455.78;4945376;29;20151;-46
2021/06/14 01:37:44;;;;;;;9.43;2.72;;;;;;;18.13;69.86;101446.94;4930774;29;20078;-47
2021/06/14 01:40:13;;;;;;;3.88;1.90;;;;;;;18.14;69.75;101464.53;4941776;29;20460;-45
2021/06/14 01:42:43;;;;;;;3.58;2.03;;;;;;;18.08;70.11;101455.66;4945745;29;20047;-44
2021/06/14 01:45:10;;;;;;;2.40;1.92;;;;;;;18.13;69.82;101452.53;4952034;29;20053;-44
2021/06/14 01:47:37;;;;;;;3.03;1.52;;;;;;;18.11;70.05;101459.69;4942122;29;20457;-45
2021/06/14 01:50:05;;;;;;;3.03;1.77;;;;;;;18.15;70.00;101452.97;4935820;29;20139;-49
2021/06/14 01:52:32;;;;;;;2.72;1.95;;;;;;;18.12;70.13;101466.91;4942476;29;20134;-47
2021/06/14 01:55:01;;;;;;;1.90;1.58;;;;;;;18.17;70.20;101458.19;4923640;29;20047;-47
2021/06/14 01:57:29;;;;;;;4.07;1.75;;;;;;;18.23;70.11;101456.66;4936852;29;20198;-46
2021/06/14 02:00:00;;;;;;;1.80;1.70;;;;;;;18.22;69.93;101453.06;4943723;29;20102;-46
2021/06/14 02:02:31;;;;;;;3.50;1.88;;;;;;;18.22;70.15;101455.03;4939436;29;20078;-46
2021/06/14 02:04:59;;;;;;;2.50;1.40;;;;;;;18.21;70.10;101465.44;4931758;28;20142;-46
2021/06/14 02:07:27;;;;;;;2.83;1.73;;;;;;;18.20;70.04;101463.03;4941123;29;20043;-48
2021/06/14 02:09:55;;;;;;;2.28;1.73;;;;;;;18.20;70.39;101475.06;4953945;29;20077;-49
2021/06/14 02:12:23;;;;;;;4.35;2.10;;;;;;;18.22;70.36;101466.25;4944234;29;20896;-47
2021/06/14 02:14:51;;;;;;;3.10;2.08;;;;;;;18.16;70.62;101479.00;4940382;29;20047;-49
2021/06/14 02:17:22;;;;;;;4.28;2.25;;;;;;;18.12;71.22;101478.94;4945469;29;20138;-46
2021/06/14 02:19:50;;;;;;;3.53;2.47;;;;;;;18.01;71.26;101483.56;4943022;29;20106;-46
2021/06/14 02:22:18;;;;;;;3.97;2.63;;;;;;;17.91;71.86;101489.03;4942428;29;20497;-47
2021/06/14 02:24:45;;;;;;;2.10;1.90;;;;;;;17.76;72.36;101495.59;4937004;29;20429;-45
2021/06/14 02:27:15;;;;;;;3.80;2.22;;;;;;;17.56;73.04;101484.47;4945299;29;20075;-47
2021/06/14 02:29:42;;;;;;;2.13;1.95;;;;;;;17.58;72.91;101498.91;4940005;29;20453;-44
2021/06/14 02:32:09;;;;;;;3.83;1.52;;;;;;;17.55;72.77;101488.44;4923750;29;20114;-47
2021/06/14 02:34:38;;;;;;;5.20;1.35;;;;;;;17.54;72.67;101498.03;4942792;29;20040;-46
2021/06/14 02:37:07;;;;;;;1.00;0.80;;;;;;;17.44;72.62;101503.44;4948455;29;20122;-47
2021/06/14 02:39:35;;;;;;;4.13;1.02;;;;;;;17.41;72.49;101501.38;4940694;29;20044;-46
2021/06/14 02:42:03;;;;;;;1.92;0.73;;;;;;;17.21;72.74;101506.19;4935732;29;20102;-46
2021/06/14 02:44:31;;;;;;;0.63;0.60;;;;;;;17.18;72.43;101501.38;4943394;29;20047;-45
2021/06/14 02:47:05;;;;;;;2.05;0.90;;;;;;;17.21;72.11;101502.63;4941484;29;20135;-48
2021/06/14 02:49:33;;;;;;;0.95;0.50;;;;;;;17.20;71.84;101492.59;4927249;29;20049;-47
2021/06/14 02:52:03;;;;;;;1.40;0.70;;;;;;;17.19;71.60;101491.78;4934185;29;20127;-47
2021/06/14 02:55:05;;;;;;;0.93;0.50;;;;;;;17.13;71.79;101510.03;4934766;29;20052;-46
2021/06/14 02:57:33;;;;;;;1.13;0.75;;;;;;;17.08;71.60;101495.56;4918260;29;20051;-48
2021/06/14 03:00:00;;;;;;;1.40;0.88;;;;;;;17.11;71.49;101504.00;4941002;29;20146;-46
2021/06/14 03:02:28;;;;;;;0.70;0.65;;;;;;;17.05;72.03;101511.09;4939357;29;20043;-45
2021/06/14 03:04:55;;;;;;;2.83;1.00;;;;;;;16.98;71.92;101508.16;4941449;29;20138;-44
2021/06/14 03:07:28;;;;;;;0.50;0.50;;;;;;;17.01;72.29;101522.22;4938656;29;20039;-48
2021/06/14 03:09:55;;;;;;;1.00;0.80;;;;;;;16.98;72.20;101524.94;4946942;29;20051;-48
2021/06/14 03:12:25;;;;;;;1.75;0.60;;;;;;;16.90;72.75;101523.19;4945108;29;20130;-50
2021/06/14 03:14:52;;;;;;;1.17;0.70;;;;;;;16.84;72.74;101531.06;4945599;29;20083;-47
2021/06/14 03:17:20;;;;;;;1.77;0.88;;;;;;;16.88;72.93;101523.56;4923952;29;20103;-49
2021/06/14 03:19:47;;;;;;;2.20;0.65;;;;;;;16.89;73.14;101516.00;4944283;29;20049;-49
2021/06/14 03:22:15;;;;;;;1.45;0.30;;;;;;;16.78;73.11;101514.97;4921031;29;20524;-48
2021/06/14 03:24:42;;;;;;;0.20;0.20;;;;;;;16.66;73.68;101520.69;4934312;29;20040;-48
2021/06/14 03:27:11;;;;;;;0.32;0.10;;;;;;;16.54;73.69;101521.66;4941591;29;20166;-48
2021/06/14 03:29:38;;;;;;;0.30;0.20;;;;;;;16.48;73.61;101527.84;4941297;29;20515;-49
2021/06/14 03:32:05;;;;;;;0.15;0.15;;;;;;;16.36;73.87;101524.00;4948981;29;20118;-47
2021/06/14 03:34:35;;;;;;;0.10;0.10;;;;;;;16.22;73.94;101534.88;4943349;29;20047;-48
2021/06/14 03:37:05;;;;;;;1.15;0.10;;;;;;;16.13;73.89;101537.06;4931945;29;20040;-48
2021/06/14 03:39:33;;;;;;;0.10;0.10;;;;;;;16.10;73.57;101523.81;4936579;29;20059;-47
2021/06/14 03:42:01;;;;;;;0.63;0.10;;;;;;;15.99;73.39;101521.97;4949203;29;20047;-51
2021/06/14 03:44:28;;;;;;;0.43;0.10;;;;;;;15.86;73.41;101532.41;4941536;29;20497;-49
2021/06/14 03:46:55;;;;;;;0.13;0.13;;;;;;;15.83;73.34;101530.34;4937930;29;20043;-50
2021/06/14 03:49:21;;;;;;;0.00;0.00;;;;;;;15.81;73.26;101538.25;4944458;29;20110;-51
2021/06/14 03:51:48;;;;;;;0.10;0.10;;;;;;;15.82;72.99;101534.31;4944041;29;20078;-50
2021/06/14 03:54:15;;;;;;;0.10;0.10;;;;;;;15.79;73.08;101535.84;4933861;29;20516;-49
2021/06/14 03:56:42;;;;;;;0.30;0.10;;;;;;;15.80;72.98;101536.66;4932981;29;20071;-48
2021/06/14 03:59:09;;;;;;;0.17;0.13;;;;;;;15.80;73.06;101529.09;4941256;29;20039;-45
2021/06/14 04:01:36;;;;;;;1.50;0.10;;;;;;;15.89;73.00;101525.28;4932620;29;20086;-46
2021/06/14 04:06:32;;;;;;;0.20;0.00;;;;;;;15.94;72.83;101537.00;4940946;29;20466;-52
2021/06/14 04:08:59;;;;;;;0.57;0.10;;;;;;;15.93;72.55;101540.97;4941529;29;20129;-47
2021/06/14 04:11:26;;;;;;;0.10;0.10;;;;;;;15.95;72.37;101548.97;4934411;29;20155;-47
2021/06/14 04:13:53;;;;;;;0.03;0.00;;;;;;;15.93;72.33;101542.94;4940432;29;20044;-50
2021/06/14 04:16:20;;;;;;;0.20;0.10;;;;;;;15.99;72.18;101549.88;4942744;29;20126;-48
2021/06/14 04:18:48;;;;;;;0.20;0.00;;;;;;;16.02;72.06;101543.59;4933374;29;20042;-48
2021/06/14 04:21:14;;;;;;;0.00;0.00;;;;;;;16.07;71.51;101544.09;4938031;29;20134;-45
2021/06/14 04:23:42;;;;;;;2.08;0.10;;;;;;;16.08;71.50;101542.09;4941468;29;20078;-50
2021/06/14 04:26:10;;;;;;;1.48;0.03;;;;;;;16.04;71.11;101539.25;4940100;29;20071;-49
2021/06/14 04:28:38;;;;;;;0.20;0.00;;;;;;;16.05;71.06;101537.25;4921344;29;20444;-46
2021/06/14 04:31:05;;;;;;;0.00;0.00;;;;;;;16.01;70.75;101545.56;4940397;29;20043;-51
2021/06/14 04:33:32;;;;;;;0.00;0.00;;;;;;;15.91;70.53;101548.91;4944620;29;20039;-47
2021/06/14 04:35:59;;;;;;;0.00;0.00;;;;;;;15.84;70.68;101559.88;4946739;29;20564;-51
2021/06/14 04:38:26;;;;;;;0.00;0.00;;;;;;;15.78;70.55;101547.34;4938018;29;20098;-49
2021/06/14 04:40:53;;;;;;;0.22;0.05;;;;;;;15.72;70.40;101552.44;4928954;29;20482;-48
2021/06/14 04:43:19;;;;;;;0.13;0.03;;;;;;;15.68;70.08;101550.69;4949428;29;20400;-46
2021/06/14 04:45:46;;;;;;;0.52;0.00;;;;;;;15.57;70.22;101552.41;4936743;29;20035;-51
2021/06/14 04:48:13;;;;;;;1.45;0.08;;;;;;;15.61;70.17;101550.53;4947081;29;20044;-47
2021/06/14 04:50:44;;;;;;;0.35;0.10;;;;;;;15.58;70.07;101562.41;4940327;29;20074;-47
2021/06/14 04:53:10;;;;;;;1.38;0.00;;;;;;;15.70;69.87;101565.13;4939321;29;20078;-47
2021/06/14 04:55:37;;;;;;;0.00;0.00;;;;;;;15.66;70.05;101565.03;4946307;29;20139;-49
2021/06/14 04:58:04;;;;;;;0.50;0.13;;;;;;;15.56;70.02;101575.91;4944269;29;20079;-47
2021/06/14 05:00:31;;;;;;;0.40;0.40;;;;;;;15.55;70.18;101582.66;4946070;29;20054;-50
2021/06/14 05:02:58;;;;;;;0.13;0.03;;;;;;;15.56;69.98;101587.09;4937262;29;20127;-47
2021/06/14 05:05:26;;;;;;;0.00;0.00;;;;;;;15.51;70.07;101584.56;4948379;29;20036;-49
2021/06/14 05:07:52;;;;;;;0.00;0.00;;;;;;;15.47;70.24;101589.22;4943987;29;20053;-49
2021/06/14 05:10:19;;;;;;;0.10;0.10;;;;;;;15.59;69.99;101587.19;4935050;29;20542;-48
2021/06/14 05:12:46;;;;;;;0.00;0.00;;;;;;;15.50;69.82;101592.13;4948021;29;20046;-49
2021/06/14 05:15:16;;;;;;;0.20;0.00;;;;;;;15.57;69.86;101588.69;4945452;29;20085;-47
2021/06/14 05:17:45;;;;;;;0.80;0.10;;;;;;;15.69;69.73;101588.63;4937241;29;20560;-49
2021/06/14 05:20:23;;;;;;;0.22;0.22;;;;;;;15.78;69.20;101606.00;4938398;29;20044;-45
2021/06/14 05:22:50;;;;;;;0.25;0.20;;;;;;;15.84;69.14;101607.34;4939163;29;20130;-47
2021/06/14 05:25:17;;;;;;;0.40;0.10;;;;;;;15.81;69.07;101610.88;4934466;29;20103;-48
2021/06/14 05:27:44;;;;;;;1.52;0.10;;;;;;;15.77;69.28;101607.19;4943691;29;20051;-49
2021/06/14 05:30:11;;;;;;;2.17;0.20;;;;;;;15.72;69.51;101613.03;4931294;29;20134;-50
2021/06/14 05:32:38;;;;;;;0.35;0.10;;;;;;;15.63;69.13;101621.56;4939202;29;20091;-45
2021/06/14 05:35:07;;;;;;;2.85;0.10;;;;;;;15.55;69.12;101618.94;4950653;29;20996;-47
2021/06/14 05:37:34;;;;;;;0.25;0.13;;;;;;;15.38;68.61;101624.84;4937522;29;20071;-47
2021/06/14 05:40:03;;;;;;;0.88;0.22;;;;;;;15.41;68.62;101626.91;4940514;29;20070;-49
2021/06/14 05:42:30;;;;;;;0.60;0.30;;;;;;;15.41;68.53;101638.06;4945955;29;20125;-49
2021/06/14 05:44:57;;;;;;;1.65;0.20;;;;;;;15.53;68.12;101632.44;4940527;29;20072;-49
2021/06/14 05:47:24;;;;;;;1.40;0.30;;;;;;;15.60;68.05;101643.78;4942541;29;20058;-49
2021/06/14 05:49:51;;;;;;;1.85;0.30;;;;;;;15.61;68.03;101646.25;4940070;29;20085;-48
2021/06/14 05:52:18;;;;;;;10.70;1.85;;;;;;;15.67;67.71;101646.81;4940313;29;20043;-48
2021/06/14 05:54:45;;;;;;;3.50;0.60;;;;;;;15.71;67.76;101648.50;4927840;29;20094;-47
2021/06/14 05:57:11;;;;;;;0.50;0.30;;;;;;;15.77;67.69;101649.88;4939176;29;20079;-48
2021/06/14 05:59:40;;;;;;;4.38;0.45;;;;;;;15.72;67.52;101640.97;4946055;29;20382;-45
2021/06/14 06:02:08;;;;;;;1.77;0.70;;;;;;;15.79;67.52;101652.31;4937415;29;20046;-48
2021/06/14 06:04:35;;;;;;;3.00;0.90;;;;;;;15.84;66.76;101649.25;4943074;29;20126;-46
2021/06/14 06:07:02;;;;;;;4.82;0.80;;;;;;;15.93;66.67;101652.69;4932208;29;20482;-45
2021/06/14 06:09:30;;;;;;;3.72;0.70;;;;;;;16.09;66.35;101656.31;4952278;29;20130;-46
2021/06/14 06:11:57;;;;;;;4.45;0.55;;;;;;;16.08;66.17;101668.63;4946947;29;20102;-46
2021/06/14 06:14:24;;;;;;;2.63;0.98;;;;;;;15.86;65.94;101665.66;4945510;29;20449;-47
2021/06/14 06:16:51;;;;;;;6.80;1.30;;;;;;;15.90;66.14;101670.16;4945291;29;20126;-46
2021/06/14 06:19:18;;;;;;;1.20;0.63;;;;;;;15.91;66.03;101660.63;4946630;29;20123;-49
2021/06/14 06:21:46;;;;;;;6.35;0.90;;;;;;;15.90;65.27;101664.56;4944889;29;20122;-46
2021/06/14 06:24:15;;;;;;;6.47;0.82;;;;;;;15.77;64.74;101657.44;4951118;29;20138;-45
2021/06/14 06:26:42;;;;;;;7.00;1.38;;;;;;;15.84;64.98;101660.41;4928055;29;20134;-45
2021/06/14 06:29:09;;;;;;;8.30;1.23;;;;;;;15.82;64.91;101654.38;4938736;29;20493;-46
2021/06/14 06:31:36;;;;;;;3.72;0.95;;;;;;;15.86;64.47;101660.84;4920688;29;20043;-47
2021/06/14 06:34:03;;;;;;;7.07;1.05;;;;;;;15.85;64.31;101653.66;4944103;29;20088;-49
2021/06/14 06:36:30;;;;;;;10.63;1.67;;;;;;;15.97;63.98;101661.94;4942391;29;20067;-47
2021/06/14 06:38:57;;;;;;;6.53;1.23;;;;;;;15.98;63.69;101660.78;4940463;29;20104;-45
2021/06/14 06:41:24;;;;;;;8.20;1.27;;;;;;;16.01;63.39;101660.09;4936248;29;20079;-47
2021/06/14 06:43:51;;;;;;;8.45;1.40;;;;;;;15.96;63.12;101662.31;4943301;29;20493;-46
2021/06/14 06:46:17;;;;;;;9.85;1.73;;;;;;;15.81;63.08;101663.91;4951201;23;20086;-48
2021/06/14 06:48:44;;;;;;;8.93;1.35;;;;;;;15.80;63.13;101663.13;4982955;23;20058;-50
2021/06/14 06:51:11;;;;;;;14.80;2.22;;;;;;;15.88;62.75;101672.50;4984206;28;20184;-46
2021/06/14 06:53:40;;;;;;;8.35;1.58;;;;;;;15.80;62.97;101663.13;4975942;28;20038;-49
2021/06/14 06:56:08;;;;;;;5.45;1.58;;;;;;;15.98;62.93;101671.97;4985139;28;20081;-47
2021/06/14 06:58:37;;;;;;;6.07;1.38;;;;;;;16.05;62.62;101665.75;4971585;28;20039;-48
2021/06/14 07:01:05;;;;;;;3.83;1.02;;;;;;;16.01;62.81;101671.25;4966409;28;20038;-45
2021/06/14 07:03:34;;;;;;;3.08;1.15;;;;;;;16.07;62.68;101669.78;4968822;28;20035;-45
2021/06/14 07:06:03;;;;;;;4.53;0.90;;;;;;;16.07;62.74;101677.38;4973072;28;20069;-46
2021/06/14 07:08:29;;;;;;;5.30;1.17;;;;;;;16.15;62.87;101677.19;4985505;28;20046;-46
2021/06/14 07:10:56;;;;;;;2.78;0.60;;;;;;;16.31;62.82;101677.19;4974768;28;20265;-47
2021/06/14 07:13:24;;;;;;;5.25;1.08;;;;;;;16.53;62.87;101686.94;4957091;28;20051;-48
2021/06/14 07:15:51;;;;;;;5.60;1.02;;;;;;;16.66;62.45;101683.66;4974764;28;20074;-51
2021/06/14 07:18:18;;;;;;;5.05;0.70;;;;;;;16.73;62.06;101677.44;4970476;28;20564;-47
2021/06/14 07:20:45;;;;;;;1.85;0.30;;;;;;;16.67;62.22;101676.91;4930562;28;20043;-52
2021/06/14 07:23:12;;;;;;;0.98;0.55;;;;;;;16.79;62.27;101670.38;4975871;28;20105;-48
2021/06/14 07:25:39;;;;;;;4.53;0.80;;;;;;;16.95;61.79;101687.94;4967771;28;20047;-48
2021/06/14 07:28:06;;;;;;;5.97;0.77;;;;;;;17.07;61.28;101690.63;4978451;28;20054;-45
2021/06/14 07:30:33;;;;;;;4.95;0.40;;;;;;;17.09;61.13;101693.84;4971813;28;20070;-45
2021/06/14 07:33:02;;;;;;;1.48;0.45;;;;;;;17.28;60.89;101684.66;4968290;28;20105;-47
2021/06/14 07:35:49;;;;;;;1.92;0.60;;;;;;;17.44;60.06;101686.22;4969898;28;20049;-49
2021/06/14 07:38:15;;;;;;;2.33;0.80;;;;;;;17.50;59.51;101690.31;4960709;28;20054;-46
2021/06/14 07:40:43;;;;;;;4.82;0.77;;;;;;;17.53;58.70;101681.22;4969400;28;20133;-48
2021/06/14 07:43:12;;;;;;;4.90;0.60;;;;;;;17.57;58.62;101675.69;4971096;28;20058;-48
2021/06/14 07:45:41;;;;;;;2.13;0.80;;;;;;;17.80;58.40;101684.13;4958757;28;20121;-48
2021/06/14 07:48:09;;;;;;;4.35;0.90;;;;;;;17.75;57.19;101665.63;4966808;28;20604;-51
2021/06/14 07:50:36;;;;;;;4.10;1.27;;;;;;;17.86;56.95;101675.06;4976191;28;20443;-47
2021/06/14 07:53:03;;;;;;;3.17;0.82;;;;;;;18.14;56.85;101677.53;4963925;28;20672;-48
2021/06/14 07:55:32;;;;;;;6.20;1.05;;;;;;;18.03;55.83;101682.19;4972162;28;20092;-51
2021/06/14 07:57:59;;;;;;;4.38;1.00;;;;;;;18.10;55.71;101679.47;4965074;28;20563;-46
2021/06/14 08:00:26;;;;;;;6.00;1.17;;;;;;;18.42;55.00;101677.22;4970688;28;20044;-47
2021/06/14 08:02:55;;;;;;;4.80;0.77;;;;;;;18.68;54.81;101668.84;4963070;28;20043;-49
2021/06/14 08:05:22;;;;;;;2.80;0.90;;;;;;;18.63;54.13;101660.75;4976187;28;20054;-46
2021/06/14 08:07:55;;;;;;;7.30;0.90;;;;;;;18.60;53.95;101664.31;4958256;28;20042;-47
2021/06/14 08:10:22;;;;;;;4.45;0.98;;;;;;;18.56;53.80;101660.66;4974327;28;20395;-46
2021/06/14 08:12:52;;;;;;;4.75;1.73;;;;;;;18.42;53.61;101663.22;4966785;28;20101;-46
2021/06/14 08:15:25;;;;;;;4.40;0.93;;;;;;;18.24;53.42;101662.91;4968082;28;20547;-46
2021/06/14 08:18:01;;;;;;;1.98;0.77;;;;;;;18.08;53.43;101665.03;4966080;28;20129;-45
2021/06/14 08:25:35;;;;;;;4.32;1.10;;;;;;;17.83;52.82;101661.78;4970807;28;20848;-50
2021/06/14 08:28:03;;;;;;;;;;;;;;;17.87;52.05;101667.47;4981846;28;20042;-46
2021/06/14 08:30:31;;;;;;;6.80;1.30;;;;;;;17.91;53.17;101668.31;4973305;28;19922;-48
2021/06/14 08:32:58;;;;;;;4.85;1.17;;;;;;;17.99;53.42;101670.06;4975667;28;20465;-54
2021/06/14 08:35:27;;;;;;;6.88;0.80;;;;;;;18.02;52.74;101674.94;4979129;28;20392;-49
2021/06/14 08:37:56;;;;;;;4.65;0.80;;;;;;;18.12;52.70;101666.72;4966363;28;20141;-46
2021/06/14 08:40:26;;;;;;;4.72;1.02;;;;;;;18.29;52.61;101673.81;4965305;28;20069;-48
2021/06/14 08:42:54;;;;;;;4.43;0.90;;;;;;;18.58;52.32;101669.50;4977390;28;20091;-49
2021/06/14 08:45:21;;;;;;;3.20;0.93;;;;;;;18.63;51.42;101684.00;4976406;28;20061;-46
2021/06/14 08:47:49;;;;;;;2.47;1.00;;;;;;;18.68;51.37;101688.50;4972711;28;20058;-49
2021/06/14 08:50:19;;;;;;;4.90;1.00;;;;;;;18.71;50.67;101691.34;4987744;28;20557;-47
2021/06/14 08:52:47;;;;;;;10.40;2.40;;;;;;;18.73;50.72;101693.78;4979833;28;20043;-49
2021/06/14 08:55:16;;;;;;;5.40;0.88;;;;;;;18.96;50.81;101680.47;4981498;28;20046;-47
2021/06/14 08:57:43;;;;;;;3.55;1.30;;;;;;;19.51;50.35;101689.25;4971859;28;20043;-52
2021/06/14 09:00:15;;;;;;;6.80;1.23;;;;;;;19.72;49.45;101693.13;4982400;28;20042;-50
2021/06/14 09:02:44;;;;;;;7.32;1.20;;;;;;;19.96;49.51;101694.59;4955534;28;20369;-48
2021/06/14 09:05:12;;;;;;;6.57;1.20;;;;;;;20.35;48.43;101692.16;4970980;28;20575;-45
2021/06/14 09:07:40;;;;;;;3.85;0.93;;;;;;;20.73;48.28;101683.19;4977477;28;20529;-46
2021/06/14 09:10:08;;;;;;;3.15;0.90;;;;;;;20.85;47.80;101680.06;4972520;28;20276;-48
2021/06/14 09:12:40;;;;;;;9.02;1.40;;;;;;;21.27;47.28;101685.16;4952511;28;20054;-49
2021/06/14 09:15:12;;;;;;;5.05;1.30;;;;;;;21.62;46.62;101684.50;4975117;28;20058;-48
2021/06/14 09:17:39;;;;;;;4.75;1.02;;;;;;;21.40;46.73;101696.88;4976171;28;20125;-48
2021/06/14 09:20:15;;;;;;;3.58;1.10;;;;;;;21.01;45.41;101693.84;4960381;28;20106;-49
2021/06/14 09:22:43;;;;;;;4.47;1.58;;;;;;;20.97;45.65;101698.66;4973279;28;20353;-50
2021/06/14 09:25:17;;;;;;;4.25;1.20;;;;;;;21.46;44.51;101698.13;4972060;28;20542;-48
2021/06/14 09:27:43;;;;;;;6.03;1.23;;;;;;;22.29;44.27;101705.19;4975169;28;20070;-49
2021/06/14 09:30:22;;;;;;;3.67;1.17;;;;;;;22.68;43.64;101702.41;4962239;28;20534;-48
2021/06/14 09:33:00;;;;;;;8.50;1.40;;;;;;;22.37;43.13;101703.97;4979436;28;20042;-57
2021/06/14 09:35:31;;;;;;;3.50;1.52;;;;;;;21.66;43.26;101707.84;4954223;28;20051;-48
2021/06/14 09:37:59;;;;;;;5.40;1.00;;;;;;;21.08;43.99;101711.63;4963015;28;20043;-49
2021/06/14 09:40:31;;;;;;;5.53;1.65;;;;;;;21.44;43.97;101700.53;4971088;28;20042;-48
2021/06/14 09:42:58;;;;;;;7.68;1.40;;;;;;;21.35;43.75;101702.91;4964375;28;20791;-49
2021/06/14 09:45:25;;;;;;;6.30;1.10;;;;;;;21.40;43.58;101699.69;4968187;28;20072;-48
2021/06/14 09:47:54;;;;;;;5.75;0.93;;;;;;;21.62;43.37;101707.03;4970371;28;20113;-48
2021/06/14 09:50:31;;;;;;;4.70;1.23;;;;;;;21.50;41.09;101693.31;4982792;28;20057;-52
2021/06/14 09:53:11;;;;;;;5.63;1.20;;;;;;;21.43;42.31;101698.91;4979407;28;20828;-49
2021/06/14 09:55:39;;;;;;;5.57;1.05;;;;;;;21.55;42.82;101707.03;4970592;28;20052;-49
2021/06/14 09:58:11;;;;;;;6.32;1.60;;;;;;;21.37;42.22;101706.13;4966693;28;20038;-54
2021/06/14 10:00:45;;;;;;;4.30;1.05;;;;;;;21.34;41.98;101706.94;4970934;28;20499;-49
2021/06/14 10:03:13;;;;;;;3.55;1.05;;;;;;;21.12;43.18;101709.63;4979157;28;20130;-48
2021/06/14 10:05:48;;;;;;;7.97;1.52;;;;;;;21.20;43.16;101702.84;4969651;28;20050;-47
2021/06/14 10:08:32;;;;;;;4.82;1.38;;;;;;;21.34;43.03;101706.94;4969275;28;20126;-47
2021/06/14 10:11:11;;;;;;;6.60;1.25;;;;;;;20.88;42.38;101701.00;4958146;28;20102;-51
2021/06/14 10:13:45;;;;;;;6.07;2.13;;;;;;;20.63;43.53;101712.06;4958974;28;20054;-53
2021/06/14 10:16:14;;;;;;;6.72;1.92;;;;;;;20.59;43.83;101706.44;4973859;28;20078;-46
2021/06/14 10:18:51;;;;;;;6.32;1.40;;;;;;;20.49;43.90;101701.50;4973821;28;20073;-46
2021/06/14 10:21:27;;;;;;;4.05;1.35;;;;;;;20.46;43.30;101707.13;4984771;28;20113;-51
2021/06/14 10:23:58;;;;;;;8.52;1.60;;;;;;;20.37;44.07;101713.06;4961511;28;20773;-50
2021/06/14 10:26:28;;;;;;;4.80;1.73;;;;;;;20.30;44.51;101712.22;4969807;28;20117;-48
2021/06/14 10:28:56;;;;;;;8.20;2.28;;;;;;;20.36;44.55;101719.88;4983494;28;20050;-53
2021/06/14 10:31:25;;;;;;;3.70;1.00;;;;;;;20.26;44.32;101720.59;4966799;28;20055;-47
2021/06/14 10:33:55;;;;;;;4.10;0.80;;;;;;;20.20;44.12;101721.31;4967725;28;20039;-45
2021/06/14 10:36:26;;;;;;;3.47;1.00;;;;;;;20.32;43.59;101718.25;4984011;28;20078;-53
2021/06/14 10:38:55;;;;;;;4.18;1.13;;;;;;;20.47;43.56;101708.72;4978829;28;20504;-51
2021/06/14 10:41:23;;;;;;;5.25;1.75;;;;;;;20.62;43.67;101710.47;4968715;28;20698;-52
2021/06/14 10:43:52;;;;;;;5.70;1.55;;;;;;;20.72;43.41;101715.38;4983409;28;20093;-48
2021/06/14 10:46:24;;;;;;;6.85;1.42;;;;;;;20.78;43.44;101718.63;4963776;28;20094;-51
2021/06/14 10:49:00;;;;;;;3.95;1.40;;;;;;;20.71;43.23;101725.00;4970519;28;20515;-46
2021/06/14 10:51:32;;;;;;;5.50;1.55;;;;;;;20.64;43.43;101719.34;4977761;28;20051;-45
2021/06/14 10:54:16;;;;;;;6.90;1.40;;;;;;;20.56;43.37;101726.91;4962851;28;20070;-47
2021/06/14 10:56:45;;;;;;;3.88;1.40;;;;;;;20.51;43.94;101718.03;4973590;28;20093;-51
2021/06/14 10:59:14;;;;;;;5.75;1.50;;;;;;;20.56;44.42;101718.47;4974370;28;20108;-48
2021/06/14 11:01:46;;;;;;;8.65;1.35;;;;;;;20.68;43.95;101720.16;4983066;28;20046;-47
2021/06/14 11:04:27;;;;;;;6.72;1.38;;;;;;;20.77;42.64;101725.44;4960386;28;20073;-47
2021/06/14 11:06:56;;;;;;;7.43;1.33;;;;;;;20.65;43.90;101720.97;4968341;28;20110;-47
2021/06/14 11:09:24;;;;;;;4.13;1.40;;;;;;;20.61;43.65;101722.91;4964384;28;20100;-49
2021/06/14 11:11:59;;;;;;;6.47;1.30;;;;;;;20.50;43.98;101730.47;4973968;28;20153;-47
2021/06/14 11:14:46;;;;;;;10.02;1.60;;;;;;;20.46;43.28;101724.00;4946782;28;20485;-45
2021/06/14 11:17:24;;;;;;;7.53;1.77;;;;;;;20.49;44.37;101724.00;4969272;28;20083;-50
2021/06/14 11:20:05;;;;;;;10.25;1.95;;;;;;;20.54;43.82;101720.06;4966707;28;20039;-51
2021/06/14 11:22:47;;;;;;;5.77;1.20;;;;;;;20.41;43.51;101727.19;4983390;28;20042;-51
2021/06/14 11:25:25;;;;;;;7.60;1.60;;;;;;;20.29;43.37;101733.06;4968640;28;20045;-51
2021/06/14 11:27:52;;;;;;;10.43;2.50;;;;;;;20.14;43.94;101731.31;4976401;28;20062;-52
2021/06/14 11:30:24;;;;;;;4.60;1.40;;;;;;;20.14;43.79;101731.31;4964290;28;20042;-50
2021/06/14 11:32:51;;;;;;;6.40;1.73;;;;;;;20.16;43.83;101734.53;4980714;28;20122;-47
2021/06/14 11:35:19;;;;;;;4.95;1.27;;;;;;;20.11;43.99;101730.06;4973653;28;20035;-47
2021/06/14 11:37:48;;;;;;;9.48;2.38;;;;;;;20.00;43.84;101729.97;4967790;28;20526;-46
2021/06/14 11:40:23;;;;;;;6.13;1.10;;;;;;;19.95;44.38;101732.31;4974575;28;20144;-49
2021/06/14 11:42:53;;;;;;;6.35;1.70;;;;;;;20.01;44.16;101742.03;4971459;28;20138;-49